• Join FlightAware (Why Join?)
  • Login
  • US Flag 
07:34PM EDT


 

Airport Tracker/Info


-or-


 

Live Flight TrackerFlight Track Log ✈ SWA1464 ✈ 31-Jul-2013 ✈ KCLT - KHOU

Flight Track Log - Related Links

Times and Time Zones

All times are in EDT time to prevent confusion due to time zone crossing. See the SWA1464 flight status page for this flight to view local times or setup timezone preferences in your user account.

Time Position Orientation Groundspeed Altitude Reporting Facility
EDT Latitude Longitude Course Direction KTS MPH feet Rate Location/Type
10:48AM 35.1558 -80.9572 185° South 178 205 3,100  Level Atlanta Center
10:49AM 35.1414 -81.0492 259° West 247 284 5,200 2,520 Climbing Atlanta Center
10:50AM 35.1356 -81.1511 266° West 272 313 8,800 3,360 Climbing Atlanta Center
10:51AM 35.1211 -81.2431 259° West 277 319 12,000 2,580 Climbing Atlanta Center
10:52AM 35.0731 -81.3386 238° Southwest 301 346 14,000 1,200 Climbing Atlanta Center
10:53AM 35.0397 -81.4436 249° West 328 377 14,400 1,440 Climbing Atlanta Center
10:54AM 35.0067 -81.5561 250° West 348 400 16,900 2,400 Climbing Atlanta Center
10:55AM 34.9717 -81.6764 250° West 366 421 19,200 2,400 Climbing Atlanta Center
10:56AM 34.9322 -81.7992 249° West 384 442 21,800 2,100 Climbing Atlanta Center
10:57AM 34.8819 -81.9069 240° Southwest 401 461 23,500 1,920 Climbing Atlanta Center
10:58AM 34.8086 -82.0250 233° Southwest 406 467 25,700 2,100 Climbing Atlanta Center
10:59AM 34.7397 -82.1481 236° Southwest 427 491 27,700 1,800 Climbing Atlanta Center
11:00AM 34.6725 -82.2633 235° Southwest 432 497 29,300 1,620 Climbing Atlanta Center
11:01AM 34.6033 -82.3883 236° Southwest 432 497 31,000 1,800 Climbing Atlanta Center
11:02AM 34.5339 -82.5056 234° Southwest 437 503 32,900 1,500 Climbing Atlanta Center
11:03AM 34.4683 -82.6103 233° Southwest 437 503 34,000 540 Climbing Atlanta Center
11:04AM 34.4008 -82.7272 235° Southwest 437 503 34,000  Level Atlanta Center
11:05AM 34.3269 -82.8542 235° Southwest 432 497 34,000  Level Atlanta Center
11:06AM 34.2633 -82.9681 236° Southwest 427 491 34,000 1,020 Level Atlanta Center
11:07AM 34.1956 -83.0819 234° Southwest 427 491 36,100 1,620 Climbing Atlanta Center
11:08AM 34.1294 -83.1931 234° Southwest 422 486 37,300 900 Climbing Atlanta Center
11:09AM 34.0656 -83.3067 236° Southwest 415 478 38,000 300 Climbing Atlanta Center
11:10AM 33.9992 -83.4175 234° Southwest 415 478 38,000  Level Atlanta Center
11:11AM 33.9331 -83.5331 235° Southwest 420 483 38,000  Level Atlanta Center
11:12AM 33.8647 -83.6486 235° Southwest 420 483 38,000  Level Atlanta Center
11:13AM 33.8231 -83.7564 245° Southwest 415 478 38,000  Level Atlanta Center
11:14AM 33.7858 -83.8864 251° West 415 478 38,000  Level Atlanta Center
11:15AM 33.7483 -84.0139 251° West 415 478 38,000  Level Atlanta Center
11:16AM 33.7086 -84.1436 250° West 410 472 38,000  Level Atlanta Center
11:17AM 33.6772 -84.2758 254° West 410 472 38,000  Level Atlanta Center
11:18AM 33.6350 -84.4031 248° West 410 472 38,000  Level Atlanta Center
11:19AM 33.6094 -84.5575 259° West 410 472 38,000  Level Atlanta Center
11:20AM 33.5881 -84.6897 259° West 415 478 38,000  Level Atlanta Center
11:21AM 33.5706 -84.8242 261° West 415 478 38,000  Level Atlanta Center
11:22AM 33.5528 -84.9561 261° West 410 472 38,000  Level Atlanta Center
11:23AM 33.5331 -85.0781 259° West 410 472 38,000  Level Atlanta Center
11:24AM 33.5131 -85.2147 260° West 415 478 38,000  Level Atlanta Center
11:25AM 33.4908 -85.3539 259° West 421 484 38,000  Level Atlanta Center
11:26AM 33.4683 -85.4906 259° West 426 490 38,000  Level Atlanta Center
11:27AM 33.4481 -85.6297 260° West 426 490 38,000  Level Atlanta Center
11:28AM 33.4253 -85.7686 259° West 432 497 38,000  Level Atlanta Center
11:29AM 33.4044 -85.8978 259° West 414 476 38,000  Level Atlanta Center
11:30AM 33.3814 -86.0364 259° West 409 471 38,000  Level Atlanta Center
11:31AM 33.3603 -86.1803 260° West 428 493 38,000  Level Atlanta Center
11:32AM 33.3369 -86.3189 259° West 428 493 38,000  Level Atlanta Center
11:33AM 33.3089 -86.4747 258° West 428 493 38,000  Level Atlanta Center
11:34AM 33.2917 -86.6033 261° West 434 499 38,000  Level Atlanta Center
11:35AM 33.2678 -86.7419 258° West 434 499 38,000  Level Atlanta Center
11:36AM 33.2436 -86.8878 259° West 434 499 38,000  Level Atlanta Center
11:37AM 33.2069 -87.0281 253° West 440 506 38,000  Level Atlanta Center
11:38AM 33.1575 -87.1678 247° West 435 501 38,000  Level Atlanta Center
11:39AM 33.1122 -87.3025 248° West 435 501 38,000  Level Atlanta Center
11:40AM 33.0692 -87.4347 249° West 435 501 38,000  Level Atlanta Center
11:42AM 32.9717 -87.7225 248° West 418 481 38,000  Level Memphis Center
11:43AM 32.9286 -87.8575 249° West 430 495 38,000  Level Memphis Center
11:44AM 32.8853 -87.9922 249° West 435 501 38,000  Level Memphis Center
11:45AM 32.8397 -88.1269 248° West 435 501 38,000  Level Memphis Center
11:46AM 32.7881 -88.2742 247° West 435 501 38,000  Level Memphis Center
11:47AM 32.7442 -88.4061 248° West 435 501 38,000  Level Memphis Center
11:48AM 32.6983 -88.5403 248° West 440 506 38,000  Level Memphis Center
11:49AM 32.6522 -88.6744 248° West 440 506 38,000  Level Memphis Center
11:50AM 32.6058 -88.8061 247° West 440 506 38,000  Level Memphis Center
11:51AM 32.5614 -88.9375 248° West 440 506 38,000  Level Memphis Center
11:52AM 32.5150 -89.0689 247° West 440 506 38,000  Level Memphis Center
11:53AM 32.4703 -89.2000 248° West 440 506 38,000  Level Memphis Center
11:54AM 32.4214 -89.3336 247° West 440 506 38,000  Level Memphis Center
11:55AM 32.3744 -89.4669 247° West 440 506 38,000  Level Memphis Center
11:56AM 32.3272 -89.6025 248° West 440 506 38,000  Level Memphis Center
11:57AM 32.2778 -89.7356 246° West 440 506 38,000  Level Memphis Center
11:58AM 32.2306 -89.8711 248° West 440 506 38,000  Level Memphis Center
11:59AM 32.1850 -90.0064 248° West 440 506 38,000  Level Memphis Center
12:00PM 32.1353 -90.1414 247° West 440 506 38,000  Level Memphis Center
12:01PM 32.0872 -90.2764 247° West 440 506 38,000  Level Memphis Center
12:02PM 32.0394 -90.4064 247° West 440 506 38,000  Level Memphis Center
12:03PM 31.9911 -90.5386 247° West 440 506 38,000  Level Memphis Center
12:05PM 31.9444 -90.6694 247° West 439 505 38,000  Level Houston Center
12:06PM 31.8942 -90.8089 247° West 444 511 38,000  Level Houston Center
12:07PM 31.8361 -90.9664 247° West 441 507 38,000  Level Houston Center
12:08PM 31.7897 -91.0917 246° West 443 510 38,000  Level Houston Center
12:09PM 31.7378 -91.2292 246° West 441 507 38,000  Level Houston Center
12:10PM 31.6889 -91.3603 246° West 439 505 38,000  Level Houston Center
12:11PM 31.6419 -91.4925 247° West 442 509 38,000  Level Houston Center
12:12PM 31.5944 -91.6244 247° West 442 509 38,000  Level Houston Center
12:13PM 31.5358 -91.7825 247° West 442 509 38,000  Level Houston Center
12:14PM 31.4878 -91.9142 247° West 442 509 38,000  Level Houston Center
12:15PM 31.4386 -92.0439 246° West 445 512 38,000  Level Houston Center
12:16PM 31.3889 -92.1758 246° West 447 514 38,000  Level Houston Center
12:17PM 31.3403 -92.3086 247° West 448 516 38,000  Level Houston Center
12:18PM 31.2794 -92.4672 246° West 456 525 38,000  Level Houston Center
12:19PM 31.2314 -92.6000 247° West 449 517 38,000  Level Houston Center
12:20PM 31.1819 -92.7336 247° West 448 516 38,000  Level Houston Center
12:21PM 31.1325 -92.8661 246° West 447 514 38,000  Level Houston Center
12:22PM 31.0825 -92.9978 246° West 446 513 38,000  Level Houston Center
12:23PM 31.0322 -93.1314 246° West 450 518 38,000  Level Houston Center
12:24PM 30.9717 -93.2906 246° West 451 519 38,000  Level Houston Center
12:25PM 30.9214 -93.4217 246° West 449 517 38,000 -120 Level Houston Center
12:26PM 30.8722 -93.5569 247° West 456 525 37,800 -1,260 Descending Houston Center
12:27PM 30.8211 -93.6869 245° Southwest 450 518 35,400 -3,000 Descending Houston Center
12:28PM 30.7592 -93.8467 246° West 454 522 31,700 -3,000 Descending Houston Center
12:29PM 30.7061 -93.9811 245° Southwest 459 528 29,200 -2,520 Descending Houston Center
12:30PM 30.6717 -94.0736 247° West 451 519 27,500 -2,460 Descending Houston Center
12:31PM 30.6114 -94.2275 246° West 436 502 24,600 -2,520 Descending Houston Center
12:32PM 30.5592 -94.3583 245° Southwest 426 490 21,900 -2,640 Descending Houston Center
12:33PM 30.5100 -94.4789 245° Southwest 423 487 19,300 -1,800 Descending Houston Center
12:34PM 30.4586 -94.5753 238° Southwest 377 434 18,400 -900 Descending Houston Center
12:35PM 30.3833 -94.6892 233° Southwest 376 433 17,500 -960 Descending Houston Center
12:37PM 30.3081 -94.8067 233° Southwest 371 427 16,200 -1,080 Descending Houston Center
12:38PM 30.2589 -94.8817 233° Southwest 364 419 15,400 -1,020 Descending Houston Center
12:39PM 30.1864 -94.9950 234° Southwest 363 418 14,200 -960 Descending Houston Center
12:40PM 30.1217 -95.0761 227° Southwest 351 404 13,200 -1,440 Descending Houston Center
12:41PM 30.0411 -95.1119 201° Southwest 350 403 11,700 -1,680 Descending Houston Center
12:42PM 29.9500 -95.1497 200° South 342 394 10,300 -1,020 Descending Houston Center
12:43PM 29.8719 -95.1906 204° Southwest 282 325 9,700 -1,080 Descending Houston Center
12:44PM 29.8333 -95.2506 233° Southwest 226 260 8,200 -1,680 Descending Houston Center
12:45PM 29.8097 -95.3114 246° West 203 234 6,300 -1,740 Descending Houston Center
12:46PM 29.7839 -95.3722 244° Southwest 193 222 4,700 -1,440 Descending Houston Center
12:47PM 29.7442 -95.3769 186° South 160 184 3,400 -1,320 Descending Houston Center
12:48PM 29.7042 -95.3506 150° Southeast 166 191 2,000 -1,320 Descending Houston Center
12:49PM 29.6711 -95.3111 134° Southeast 153 176 700 -1,260 Descending Houston Center
12:51PM 29.6454 -95.2789 134° Southeast  Level Estimated
12:58PM 29.6454 -95.2789 134° Southeast  Level Estimated